sensor_id;sensor_type;location;lat;lon;timestamp;temperature;humidity
66610;DHT22;53468;48.276;14.416;2023-01-31T00:01:46;3.70;99.90
66610;DHT22;53468;48.276;14.416;2023-01-31T00:06:49;3.60;99.90
66610;DHT22;53468;48.276;14.416;2023-01-31T00:11:53;3.70;99.90
66610;DHT22;53468;48.276;14.416;2023-01-31T00:16:55;3.70;99.90
66610;DHT22;53468;48.276;14.416;2023-01-31T00:21:58;3.70;99.90
66610;DHT22;53468;48.276;14.416;2023-01-31T00:27:00;3.60;99.90
66610;DHT22;53468;48.276;14.416;2023-01-31T00:32:03;3.50;99.90
66610;DHT22;53468;48.276;14.416;2023-01-31T00:37:06;3.40;99.90
66610;DHT22;53468;48.276;14.416;2023-01-31T00:42:09;3.40;99.90
66610;DHT22;53468;48.276;14.416;2023-01-31T00:47:11;3.40;99.90
66610;DHT22;53468;48.276;14.416;2023-01-31T00:52:14;3.40;99.90
66610;DHT22;53468;48.276;14.416;2023-01-31T00:57:16;3.30;99.90
66610;DHT22;53468;48.276;14.416;2023-01-31T01:02:18;3.30;99.90
66610;DHT22;53468;48.276;14.416;2023-01-31T01:07:22;3.30;99.90
66610;DHT22;53468;48.276;14.416;2023-01-31T01:12:24;3.20;99.90
66610;DHT22;53468;48.276;14.416;2023-01-31T01:17:26;3.20;99.90
66610;DHT22;53468;48.276;14.416;2023-01-31T01:22:30;3.30;99.90
66610;DHT22;53468;48.276;14.416;2023-01-31T01:27:32;3.30;99.90
66610;DHT22;53468;48.276;14.416;2023-01-31T01:32:34;3.40;99.90
66610;DHT22;53468;48.276;14.416;2023-01-31T01:37:37;3.30;99.90
66610;DHT22;53468;48.276;14.416;2023-01-31T01:42:39;3.40;99.90
66610;DHT22;53468;48.276;14.416;2023-01-31T01:47:45;3.50;99.90
66610;DHT22;53468;48.276;14.416;2023-01-31T01:52:53;3.50;99.90
66610;DHT22;53468;48.276;14.416;2023-01-31T01:58:03;3.60;99.90
66610;DHT22;53468;48.276;14.416;2023-01-31T02:03:07;3.50;99.90
66610;DHT22;53468;48.276;14.416;2023-01-31T02:08:11;3.60;99.90
66610;DHT22;53468;48.276;14.416;2023-01-31T02:13:13;3.60;99.90
66610;DHT22;53468;48.276;14.416;2023-01-31T02:18:16;3.60;99.90
66610;DHT22;53468;48.276;14.416;2023-01-31T02:23:46;3.70;99.90
66610;DHT22;53468;48.276;14.416;2023-01-31T02:29:20;3.60;99.90
66610;DHT22;53468;48.276;14.416;2023-01-31T02:34:30;3.60;99.90
66610;DHT22;53468;48.276;14.416;2023-01-31T02:39:40;3.60;99.90
66610;DHT22;53468;48.276;14.416;2023-01-31T02:44:51;3.60;99.90
66610;DHT22;53468;48.276;14.416;2023-01-31T02:50:09;3.60;99.90
66610;DHT22;53468;48.276;14.416;2023-01-31T02:55:15;3.60;99.90
66610;DHT22;53468;48.276;14.416;2023-01-31T03:00:38;3.70;99.90
66610;DHT22;53468;48.276;14.416;2023-01-31T03:05:42;3.70;99.90
66610;DHT22;53468;48.276;14.416;2023-01-31T03:10:59;3.60;99.90
66610;DHT22;53468;48.276;14.416;2023-01-31T03:16:11;3.70;99.90
66610;DHT22;53468;48.276;14.416;2023-01-31T03:21:39;3.70;99.90
66610;DHT22;53468;48.276;14.416;2023-01-31T03:26:43;3.70;99.90
66610;DHT22;53468;48.276;14.416;2023-01-31T03:31:49;3.70;99.90
66610;DHT22;53468;48.276;14.416;2023-01-31T03:37:00;3.70;99.90
66610;DHT22;53468;48.276;14.416;2023-01-31T03:42:07;3.70;99.90
66610;DHT22;53468;48.276;14.416;2023-01-31T03:47:13;3.80;99.90
66610;DHT22;53468;48.276;14.416;2023-01-31T03:52:21;3.90;99.90
66610;DHT22;53468;48.276;14.416;2023-01-31T03:57:29;3.80;99.90
66610;DHT22;53468;48.276;14.416;2023-01-31T04:02:35;3.80;99.90
66610;DHT22;53468;48.276;14.416;2023-01-31T04:07:39;3.70;99.90
66610;DHT22;53468;48.276;14.416;2023-01-31T04:12:42;3.70;99.90
66610;DHT22;53468;48.276;14.416;2023-01-31T04:17:44;3.60;99.90
66610;DHT22;53468;48.276;14.416;2023-01-31T04:22:47;3.60;99.90
66610;DHT22;53468;48.276;14.416;2023-01-31T04:27:49;3.50;99.90
66610;DHT22;53468;48.276;14.416;2023-01-31T04:32:51;3.60;99.90
66610;DHT22;53468;48.276;14.416;2023-01-31T04:37:55;3.50;99.90
66610;DHT22;53468;48.276;14.416;2023-01-31T04:42:57;3.50;99.90
66610;DHT22;53468;48.276;14.416;2023-01-31T04:47:58;3.50;99.90
66610;DHT22;53468;48.276;14.416;2023-01-31T04:53:02;3.40;99.90
66610;DHT22;53468;48.276;14.416;2023-01-31T04:58:04;3.40;99.90
66610;DHT22;53468;48.276;14.416;2023-01-31T05:03:06;3.40;99.90
66610;DHT22;53468;48.276;14.416;2023-01-31T05:08:09;3.50;99.90
66610;DHT22;53468;48.276;14.416;2023-01-31T05:13:12;3.50;99.90
66610;DHT22;53468;48.276;14.416;2023-01-31T05:18:14;3.50;99.90
66610;DHT22;53468;48.276;14.416;2023-01-31T05:23:18;3.50;99.90
66610;DHT22;53468;48.276;14.416;2023-01-31T05:28:20;3.50;99.90
66610;DHT22;53468;48.276;14.416;2023-01-31T05:33:22;3.60;99.90
66610;DHT22;53468;48.276;14.416;2023-01-31T05:38:28;3.60;99.90
66610;DHT22;53468;48.276;14.416;2023-01-31T05:43:30;3.60;99.90
66610;DHT22;53468;48.276;14.416;2023-01-31T05:48:32;3.60;99.90
66610;DHT22;53468;48.276;14.416;2023-01-31T05:53:36;3.50;99.90
66610;DHT22;53468;48.276;14.416;2023-01-31T05:58:38;3.60;99.90
66610;DHT22;53468;48.276;14.416;2023-01-31T06:03:40;3.60;99.90
66610;DHT22;53468;48.276;14.416;2023-01-31T06:08:43;3.50;99.90
66610;DHT22;53468;48.276;14.416;2023-01-31T06:13:45;3.60;99.90
66610;DHT22;53468;48.276;14.416;2023-01-31T06:18:49;3.60;99.90
66610;DHT22;53468;48.276;14.416;2023-01-31T06:23:52;3.60;99.90
66610;DHT22;53468;48.276;14.416;2023-01-31T06:28:54;3.60;99.90
66610;DHT22;53468;48.276;14.416;2023-01-31T06:33:56;3.60;99.90
66610;DHT22;53468;48.276;14.416;2023-01-31T06:39:00;3.70;99.90
66610;DHT22;53468;48.276;14.416;2023-01-31T06:44:03;3.70;99.90
66610;DHT22;53468;48.276;14.416;2023-01-31T06:49:05;3.70;99.90
66610;DHT22;53468;48.276;14.416;2023-01-31T06:54:09;3.70;99.90
66610;DHT22;53468;48.276;14.416;2023-01-31T06:59:11;3.60;99.90
66610;DHT22;53468;48.276;14.416;2023-01-31T07:04:13;3.70;99.90
66610;DHT22;53468;48.276;14.416;2023-01-31T07:09:16;3.70;99.90
66610;DHT22;53468;48.276;14.416;2023-01-31T07:14:18;3.70;99.90
66610;DHT22;53468;48.276;14.416;2023-01-31T07:19:20;3.70;99.90
66610;DHT22;53468;48.276;14.416;2023-01-31T07:24:24;3.70;99.90
66610;DHT22;53468;48.276;14.416;2023-01-31T07:29:26;3.70;99.90
66610;DHT22;53468;48.276;14.416;2023-01-31T07:34:28;3.60;99.90
66610;DHT22;53468;48.276;14.416;2023-01-31T07:39:31;3.70;99.90
66610;DHT22;53468;48.276;14.416;2023-01-31T07:44:33;3.70;99.90
66610;DHT22;53468;48.276;14.416;2023-01-31T07:49:35;3.70;99.90
66610;DHT22;53468;48.276;14.416;2023-01-31T07:54:39;3.80;99.90
66610;DHT22;53468;48.276;14.416;2023-01-31T07:59:41;3.80;99.90
66610;DHT22;53468;48.276;14.416;2023-01-31T08:04:44;3.80;99.90
66610;DHT22;53468;48.276;14.416;2023-01-31T08:09:48;3.80;99.90
66610;DHT22;53468;48.276;14.416;2023-01-31T08:14:50;3.90;99.90
66610;DHT22;53468;48.276;14.416;2023-01-31T08:19:52;3.80;99.90
66610;DHT22;53468;48.276;14.416;2023-01-31T08:24:55;3.80;99.90
66610;DHT22;53468;48.276;14.416;2023-01-31T08:29:57;3.90;99.90
66610;DHT22;53468;48.276;14.416;2023-01-31T08:34:59;3.90;99.90
66610;DHT22;53468;48.276;14.416;2023-01-31T08:40:03;3.90;99.90
66610;DHT22;53468;48.276;14.416;2023-01-31T08:45:06;3.80;99.90
66610;DHT22;53468;48.276;14.416;2023-01-31T08:50:10;3.90;99.90
66610;DHT22;53468;48.276;14.416;2023-01-31T08:55:14;3.80;99.90
66610;DHT22;53468;48.276;14.416;2023-01-31T09:00:17;3.90;99.90
66610;DHT22;53468;48.276;14.416;2023-01-31T09:05:20;3.90;99.90
66610;DHT22;53468;48.276;14.416;2023-01-31T09:10:24;3.90;99.90
66610;DHT22;53468;48.276;14.416;2023-01-31T09:15:26;4.00;99.90
66610;DHT22;53468;48.276;14.416;2023-01-31T09:20:29;4.00;99.90
66610;DHT22;53468;48.276;14.416;2023-01-31T09:25:32;4.00;99.90
66610;DHT22;53468;48.276;14.416;2023-01-31T09:30:34;4.10;99.90
66610;DHT22;53468;48.276;14.416;2023-01-31T09:35:36;4.10;99.90
66610;DHT22;53468;48.276;14.416;2023-01-31T09:40:40;4.20;99.90
66610;DHT22;53468;48.276;14.416;2023-01-31T09:45:45;4.20;99.90
66610;DHT22;53468;48.276;14.416;2023-01-31T09:50:50;4.40;99.90
66610;DHT22;53468;48.276;14.416;2023-01-31T09:56:08;4.50;99.90
66610;DHT22;53468;48.276;14.416;2023-01-31T10:01:16;4.50;99.90
66610;DHT22;53468;48.276;14.416;2023-01-31T10:06:22;4.40;99.90
66610;DHT22;53468;48.276;14.416;2023-01-31T10:11:33;4.40;99.90
66610;DHT22;53468;48.276;14.416;2023-01-31T10:16:40;4.30;99.90
66610;DHT22;53468;48.276;14.416;2023-01-31T10:21:50;4.40;99.90
66610;DHT22;53468;48.276;14.416;2023-01-31T10:26:59;4.60;99.90
66610;DHT22;53468;48.276;14.416;2023-01-31T10:32:05;4.70;99.90
66610;DHT22;53468;48.276;14.416;2023-01-31T10:37:15;4.80;99.90
66610;DHT22;53468;48.276;14.416;2023-01-31T10:42:25;4.70;99.90
66610;DHT22;53468;48.276;14.416;2023-01-31T10:47:32;4.80;99.90
66610;DHT22;53468;48.276;14.416;2023-01-31T10:52:46;4.80;99.90
66610;DHT22;53468;48.276;14.416;2023-01-31T10:57:52;5.00;99.90
66610;DHT22;53468;48.276;14.416;2023-01-31T11:02:56;4.90;99.90
66610;DHT22;53468;48.276;14.416;2023-01-31T11:07:59;4.90;99.90
66610;DHT22;53468;48.276;14.416;2023-01-31T11:13:03;5.00;99.90
66610;DHT22;53468;48.276;14.416;2023-01-31T11:18:10;5.10;99.90
66610;DHT22;53468;48.276;14.416;2023-01-31T11:23:20;5.10;99.90
66610;DHT22;53468;48.276;14.416;2023-01-31T11:28:32;5.10;99.90
66610;DHT22;53468;48.276;14.416;2023-01-31T11:33:43;5.10;99.90
66610;DHT22;53468;48.276;14.416;2023-01-31T11:38:46;5.10;99.90
66610;DHT22;53468;48.276;14.416;2023-01-31T11:43:50;5.10;99.90
66610;DHT22;53468;48.276;14.416;2023-01-31T11:49:11;5.10;99.90
66610;DHT22;53468;48.276;14.416;2023-01-31T11:54:17;5.30;99.90
66610;DHT22;53468;48.276;14.416;2023-01-31T11:59:25;5.40;99.90
66610;DHT22;53468;48.276;14.416;2023-01-31T12:04:33;5.40;99.90
66610;DHT22;53468;48.276;14.416;2023-01-31T12:09:42;5.20;99.90
66610;DHT22;53468;48.276;14.416;2023-01-31T12:14:47;5.20;99.90
66610;DHT22;53468;48.276;14.416;2023-01-31T12:20:02;5.20;99.90
66610;DHT22;53468;48.276;14.416;2023-01-31T12:25:14;5.20;99.90
66610;DHT22;53468;48.276;14.416;2023-01-31T12:30:25;5.10;99.90
66610;DHT22;53468;48.276;14.416;2023-01-31T12:35:38;5.10;99.90
66610;DHT22;53468;48.276;14.416;2023-01-31T12:40:47;5.20;99.90
66610;DHT22;53468;48.276;14.416;2023-01-31T12:46:02;5.20;99.90
66610;DHT22;53468;48.276;14.416;2023-01-31T12:51:18;5.10;99.90
66610;DHT22;53468;48.276;14.416;2023-01-31T12:56:35;5.10;99.90
66610;DHT22;53468;48.276;14.416;2023-01-31T13:01:47;5.10;99.90
66610;DHT22;53468;48.276;14.416;2023-01-31T13:06:52;5.10;99.90
66610;DHT22;53468;48.276;14.416;2023-01-31T13:11:59;5.10;99.90
66610;DHT22;53468;48.276;14.416;2023-01-31T13:17:09;5.10;99.90
66610;DHT22;53468;48.276;14.416;2023-01-31T13:22:17;5.20;99.90
66610;DHT22;53468;48.276;14.416;2023-01-31T13:27:25;5.10;99.90
66610;DHT22;53468;48.276;14.416;2023-01-31T13:32:34;5.20;99.90
66610;DHT22;53468;48.276;14.416;2023-01-31T13:37:42;5.10;99.90
66610;DHT22;53468;48.276;14.416;2023-01-31T13:42:44;5.10;99.90
66610;DHT22;53468;48.276;14.416;2023-01-31T13:47:51;5.20;99.90
66610;DHT22;53468;48.276;14.416;2023-01-31T13:52:56;5.10;99.90
66610;DHT22;53468;48.276;14.416;2023-01-31T13:58:04;5.20;99.90
66610;DHT22;53468;48.276;14.416;2023-01-31T14:03:10;5.10;99.90
66610;DHT22;53468;48.276;14.416;2023-01-31T14:08:31;5.10;99.90
66610;DHT22;53468;48.276;14.416;2023-01-31T14:13:41;5.00;99.90
66610;DHT22;53468;48.276;14.416;2023-01-31T14:18:45;5.00;99.90
66610;DHT22;53468;48.276;14.416;2023-01-31T14:23:47;5.00;99.90
66610;DHT22;53468;48.276;14.416;2023-01-31T14:28:49;5.00;99.90
66610;DHT22;53468;48.276;14.416;2023-01-31T14:33:54;5.00;99.90
66610;DHT22;53468;48.276;14.416;2023-01-31T14:39:18;5.00;99.90
66610;DHT22;53468;48.276;14.416;2023-01-31T14:44:31;5.00;99.90
66610;DHT22;53468;48.276;14.416;2023-01-31T14:55:34;4.90;99.90
66610;DHT22;53468;48.276;14.416;2023-01-31T15:00:38;4.80;99.90
66610;DHT22;53468;48.276;14.416;2023-01-31T15:05:49;4.80;99.90
66610;DHT22;53468;48.276;14.416;2023-01-31T15:10:56;4.90;99.90
66610;DHT22;53468;48.276;14.416;2023-01-31T15:16:03;4.80;99.90
66610;DHT22;53468;48.276;14.416;2023-01-31T15:21:07;4.70;99.90
66610;DHT22;53468;48.276;14.416;2023-01-31T15:26:13;4.70;99.90
66610;DHT22;53468;48.276;14.416;2023-01-31T15:31:21;4.70;99.90
66610;DHT22;53468;48.276;14.416;2023-01-31T15:36:27;4.70;99.90
66610;DHT22;53468;48.276;14.416;2023-01-31T15:41:47;4.70;99.90
66610;DHT22;53468;48.276;14.416;2023-01-31T15:46:51;4.60;99.90
66610;DHT22;53468;48.276;14.416;2023-01-31T15:52:11;4.60;99.90
66610;DHT22;53468;48.276;14.416;2023-01-31T15:57:16;4.60;99.90
66610;DHT22;53468;48.276;14.416;2023-01-31T16:02:25;4.60;99.90
66610;DHT22;53468;48.276;14.416;2023-01-31T16:07:31;4.50;99.90
66610;DHT22;53468;48.276;14.416;2023-01-31T16:12:40;4.50;99.90
66610;DHT22;53468;48.276;14.416;2023-01-31T16:17:43;4.50;99.90
66610;DHT22;53468;48.276;14.416;2023-01-31T16:22:54;4.50;99.90
66610;DHT22;53468;48.276;14.416;2023-01-31T16:27:58;4.50;99.90
66610;DHT22;53468;48.276;14.416;2023-01-31T16:33:02;4.50;99.90
66610;DHT22;53468;48.276;14.416;2023-01-31T16:38:05;4.50;99.90
66610;DHT22;53468;48.276;14.416;2023-01-31T16:43:19;4.50;99.90
66610;DHT22;53468;48.276;14.416;2023-01-31T16:48:24;4.50;99.90
66610;DHT22;53468;48.276;14.416;2023-01-31T16:53:29;4.40;99.90
66610;DHT22;53468;48.276;14.416;2023-01-31T16:58:57;4.40;99.90
66610;DHT22;53468;48.276;14.416;2023-01-31T17:04:14;4.40;99.90
66610;DHT22;53468;48.276;14.416;2023-01-31T17:09:20;4.40;99.90
66610;DHT22;53468;48.276;14.416;2023-01-31T17:14:24;4.40;99.90
66610;DHT22;53468;48.276;14.416;2023-01-31T17:19:26;4.40;99.90
66610;DHT22;53468;48.276;14.416;2023-01-31T17:24:28;4.40;99.90
66610;DHT22;53468;48.276;14.416;2023-01-31T17:29:32;4.30;99.90
66610;DHT22;53468;48.276;14.416;2023-01-31T17:34:34;4.40;99.90
66610;DHT22;53468;48.276;14.416;2023-01-31T17:39:36;4.40;99.90
66610;DHT22;53468;48.276;14.416;2023-01-31T17:44:40;4.40;99.90
66610;DHT22;53468;48.276;14.416;2023-01-31T17:49:42;4.40;99.90
66610;DHT22;53468;48.276;14.416;2023-01-31T17:54:44;4.40;99.90
66610;DHT22;53468;48.276;14.416;2023-01-31T17:59:47;4.40;99.90
66610;DHT22;53468;48.276;14.416;2023-01-31T18:04:49;4.30;99.90
66610;DHT22;53468;48.276;14.416;2023-01-31T18:09:51;4.30;99.90
66610;DHT22;53468;48.276;14.416;2023-01-31T18:14:55;4.30;99.90
66610;DHT22;53468;48.276;14.416;2023-01-31T18:19:57;4.30;99.90
66610;DHT22;53468;48.276;14.416;2023-01-31T18:24:59;4.30;99.90
66610;DHT22;53468;48.276;14.416;2023-01-31T18:30:03;4.30;99.90
66610;DHT22;53468;48.276;14.416;2023-01-31T18:35:07;4.30;99.90
66610;DHT22;53468;48.276;14.416;2023-01-31T18:40:10;4.30;99.90
66610;DHT22;53468;48.276;14.416;2023-01-31T18:45:16;4.40;99.90
66610;DHT22;53468;48.276;14.416;2023-01-31T18:50:18;4.40;99.90
66610;DHT22;53468;48.276;14.416;2023-01-31T18:55:20;4.40;99.90
66610;DHT22;53468;48.276;14.416;2023-01-31T19:00:23;4.40;99.90
66610;DHT22;53468;48.276;14.416;2023-01-31T19:05:26;4.50;99.90
66610;DHT22;53468;48.276;14.416;2023-01-31T19:10:28;4.50;99.90
66610;DHT22;53468;48.276;14.416;2023-01-31T19:15:31;4.50;99.90
66610;DHT22;53468;48.276;14.416;2023-01-31T19:20:33;4.50;99.90
66610;DHT22;53468;48.276;14.416;2023-01-31T19:25:37;4.50;99.90
66610;DHT22;53468;48.276;14.416;2023-01-31T19:30:41;4.50;99.90
66610;DHT22;53468;48.276;14.416;2023-01-31T19:35:43;4.50;99.90
66610;DHT22;53468;48.276;14.416;2023-01-31T19:40:47;4.40;99.90
66610;DHT22;53468;48.276;14.416;2023-01-31T19:45:52;4.40;99.90
66610;DHT22;53468;48.276;14.416;2023-01-31T19:50:54;4.40;99.90
66610;DHT22;53468;48.276;14.416;2023-01-31T19:55:57;4.50;99.90
66610;DHT22;53468;48.276;14.416;2023-01-31T20:01:02;4.40;99.90
66610;DHT22;53468;48.276;14.416;2023-01-31T20:06:06;4.40;99.90
66610;DHT22;53468;48.276;14.416;2023-01-31T20:11:09;4.30;99.90
66610;DHT22;53468;48.276;14.416;2023-01-31T20:16:13;4.20;99.90
66610;DHT22;53468;48.276;14.416;2023-01-31T20:21:16;4.00;99.90
66610;DHT22;53468;48.276;14.416;2023-01-31T20:26:18;4.00;99.90
66610;DHT22;53468;48.276;14.416;2023-01-31T20:31:25;3.90;99.90
66610;DHT22;53468;48.276;14.416;2023-01-31T20:36:27;3.90;99.90
66610;DHT22;53468;48.276;14.416;2023-01-31T20:41:29;3.80;99.90
66610;DHT22;53468;48.276;14.416;2023-01-31T20:46:32;3.70;99.90
66610;DHT22;53468;48.276;14.416;2023-01-31T20:51:34;3.60;99.90
66610;DHT22;53468;48.276;14.416;2023-01-31T20:56:36;3.60;99.90
66610;DHT22;53468;48.276;14.416;2023-01-31T21:01:40;3.40;99.90
66610;DHT22;53468;48.276;14.416;2023-01-31T21:06:43;3.40;99.90
66610;DHT22;53468;48.276;14.416;2023-01-31T21:11:45;3.30;99.90
66610;DHT22;53468;48.276;14.416;2023-01-31T21:16:48;3.20;99.90
66610;DHT22;53468;48.276;14.416;2023-01-31T21:21:50;3.10;99.90
66610;DHT22;53468;48.276;14.416;2023-01-31T21:26:52;3.10;99.90
66610;DHT22;53468;48.276;14.416;2023-01-31T21:31:56;3.10;99.90
66610;DHT22;53468;48.276;14.416;2023-01-31T21:36:58;3.00;99.90
66610;DHT22;53468;48.276;14.416;2023-01-31T21:42:00;3.00;99.90
66610;DHT22;53468;48.276;14.416;2023-01-31T21:47:20;3.10;99.90
66610;DHT22;53468;48.276;14.416;2023-01-31T21:52:22;3.10;99.90
66610;DHT22;53468;48.276;14.416;2023-01-31T21:57:24;3.00;99.90
66610;DHT22;53468;48.276;14.416;2023-01-31T22:02:28;3.00;99.90
66610;DHT22;53468;48.276;14.416;2023-01-31T22:07:30;3.00;99.90
66610;DHT22;53468;48.276;14.416;2023-01-31T22:12:32;2.90;99.90
66610;DHT22;53468;48.276;14.416;2023-01-31T22:17:35;2.90;99.90
66610;DHT22;53468;48.276;14.416;2023-01-31T22:22:37;2.90;99.90
66610;DHT22;53468;48.276;14.416;2023-01-31T22:27:40;2.90;99.90
66610;DHT22;53468;48.276;14.416;2023-01-31T22:32:43;2.90;99.90
66610;DHT22;53468;48.276;14.416;2023-01-31T22:37:45;3.00;99.90
66610;DHT22;53468;48.276;14.416;2023-01-31T22:42:47;2.90;99.90
66610;DHT22;53468;48.276;14.416;2023-01-31T22:47:51;3.00;99.90
66610;DHT22;53468;48.276;14.416;2023-01-31T22:52:53;3.00;99.90
66610;DHT22;53468;48.276;14.416;2023-01-31T22:57:55;3.00;99.90
66610;DHT22;53468;48.276;14.416;2023-01-31T23:02:59;3.20;99.90
66610;DHT22;53468;48.276;14.416;2023-01-31T23:08:04;3.20;99.90
66610;DHT22;53468;48.276;14.416;2023-01-31T23:13:06;3.10;99.90
66610;DHT22;53468;48.276;14.416;2023-01-31T23:18:13;3.20;99.90
66610;DHT22;53468;48.276;14.416;2023-01-31T23:23:15;3.10;99.90
66610;DHT22;53468;48.276;14.416;2023-01-31T23:28:17;3.30;99.90
66610;DHT22;53468;48.276;14.416;2023-01-31T23:33:21;3.30;99.90
66610;DHT22;53468;48.276;14.416;2023-01-31T23:38:24;3.40;99.90
66610;DHT22;53468;48.276;14.416;2023-01-31T23:43:26;3.40;99.90
66610;DHT22;53468;48.276;14.416;2023-01-31T23:48:29;3.40;99.90
66610;DHT22;53468;48.276;14.416;2023-01-31T23:53:32;3.50;99.90
66610;DHT22;53468;48.276;14.416;2023-01-31T23:58:34;3.50;99.90
